sensor_id;sensor_type;location;lat;lon;timestamp;pressure;altitude;pressure_sealevel;temperature;humidity
77454;BME280;66538;53.150;18.160;2023-04-09T06:29:15;102287.34;;;7.62;81.40
77454;BME280;66538;53.150;18.160;2023-04-09T06:31:41;102296.61;;;7.65;81.25
77454;BME280;66538;53.150;18.160;2023-04-09T06:34:08;102301.00;;;7.70;81.18
77454;BME280;66538;53.150;18.160;2023-04-09T06:36:36;102308.28;;;7.73;81.32
77454;BME280;66538;53.150;18.160;2023-04-09T06:39:03;102315.23;;;7.77;80.80
77454;BME280;66538;53.150;18.160;2023-04-09T06:41:29;102315.57;;;7.77;80.49
77454;BME280;66538;53.150;18.160;2023-04-09T06:43:58;102319.33;;;7.79;80.81
77454;BME280;66538;53.150;18.160;2023-04-09T06:46:25;102320.56;;;7.82;80.70
77454;BME280;66538;53.150;18.160;2023-04-09T06:48:52;102321.22;;;7.86;81.03
77454;BME280;66538;53.150;18.160;2023-04-09T06:51:19;102325.50;;;7.89;80.44
77454;BME280;66538;53.150;18.160;2023-04-09T06:53:46;102329.02;;;7.94;80.60
77454;BME280;66538;53.150;18.160;2023-04-09T06:56:13;102330.27;;;7.96;80.40
77454;BME280;66538;53.150;18.160;2023-04-09T06:58:40;102328.38;;;7.97;80.48
77454;BME280;66538;53.150;18.160;2023-04-09T07:05:15;102328.52;;;7.98;80.51
77454;BME280;66538;53.150;18.160;2023-04-09T07:07:42;102325.66;;;8.03;80.49
77454;BME280;66538;53.150;18.160;2023-04-09T07:10:09;102333.16;;;8.13;80.10
77454;BME280;66538;53.150;18.160;2023-04-09T07:12:36;102336.81;;;8.19;80.00
77454;BME280;66538;53.150;18.160;2023-04-09T07:15:04;102332.38;;;8.26;79.94
77454;BME280;66538;53.150;18.160;2023-04-09T07:17:32;102335.02;;;8.34;79.87
77454;BME280;66538;53.150;18.160;2023-04-09T07:20:00;102330.34;;;8.39;79.68
77454;BME280;66538;53.150;18.160;2023-04-09T07:22:27;102334.13;;;8.48;79.40
77454;BME280;66538;53.150;18.160;2023-04-09T07:24:55;102328.70;;;8.59;79.34
77454;BME280;66538;53.150;18.160;2023-04-09T07:27:23;102326.11;;;8.67;78.87
77454;BME280;66538;53.150;18.160;2023-04-09T07:29:54;102325.30;;;8.79;78.63
77454;BME280;66538;53.150;18.160;2023-04-09T07:32:21;102322.88;;;8.98;78.23
77454;BME280;66538;53.150;18.160;2023-04-09T07:34:50;102320.23;;;9.15;77.82
77454;BME280;66538;53.150;18.160;2023-04-09T07:37:18;102327.88;;;9.31;77.58
77454;BME280;66538;53.150;18.160;2023-04-09T07:39:45;102330.98;;;9.41;77.20
77454;BME280;66538;53.150;18.160;2023-04-09T07:42:12;102332.36;;;9.50;77.01
77454;BME280;66538;53.150;18.160;2023-04-09T07:44:39;102334.77;;;9.62;76.68
77454;BME280;66538;53.150;18.160;2023-04-09T07:47:06;102339.39;;;9.66;76.48
77454;BME280;66538;53.150;18.160;2023-04-09T07:49:37;102339.86;;;9.66;76.38
77454;BME280;66538;53.150;18.160;2023-04-09T07:52:04;102342.39;;;9.72;76.35
77454;BME280;66538;53.150;18.160;2023-04-09T07:54:32;102338.52;;;9.73;76.08
77454;BME280;66538;53.150;18.160;2023-04-09T07:56:59;102340.21;;;9.77;76.11
77454;BME280;66538;53.150;18.160;2023-04-09T07:59:27;102339.30;;;9.83;75.97
77454;BME280;66538;53.150;18.160;2023-04-09T08:01:55;102336.02;;;9.86;75.71
77454;BME280;66538;53.150;18.160;2023-04-09T08:04:21;102341.61;;;9.90;75.82
77454;BME280;66538;53.150;18.160;2023-04-09T08:06:48;102338.80;;;9.99;75.75
77454;BME280;66538;53.150;18.160;2023-04-09T08:09:19;102337.92;;;10.05;75.37
77454;BME280;66538;53.150;18.160;2023-04-09T08:11:47;102336.66;;;10.13;75.32
77454;BME280;66538;53.150;18.160;2023-04-09T08:14:15;102336.38;;;10.20;75.42
77454;BME280;66538;53.150;18.160;2023-04-09T08:16:45;102334.09;;;10.24;75.31
77454;BME280;66538;53.150;18.160;2023-04-09T08:19:14;102342.63;;;10.28;75.25
77454;BME280;66538;53.150;18.160;2023-04-09T08:21:42;102341.69;;;10.30;75.11
77454;BME280;66538;53.150;18.160;2023-04-09T08:24:12;102339.77;;;10.28;74.92
77454;BME280;66538;53.150;18.160;2023-04-09T08:26:39;102341.32;;;10.26;75.17
77454;BME280;66538;53.150;18.160;2023-04-09T08:29:10;102343.40;;;10.30;75.13
77454;BME280;66538;53.150;18.160;2023-04-09T08:31:37;102342.54;;;10.29;74.99
77454;BME280;66538;53.150;18.160;2023-04-09T08:34:04;102345.56;;;10.27;75.19
77454;BME280;66538;53.150;18.160;2023-04-09T08:36:31;102344.62;;;10.26;75.25
77454;BME280;66538;53.150;18.160;2023-04-09T08:39:00;102345.39;;;10.28;75.03
77454;BME280;66538;53.150;18.160;2023-04-09T08:41:28;102339.12;;;10.29;74.91
77454;BME280;66538;53.150;18.160;2023-04-09T08:43:56;102336.05;;;10.37;74.88
77454;BME280;66538;53.150;18.160;2023-04-09T08:46:23;102337.47;;;10.47;74.66
77454;BME280;66538;53.150;18.160;2023-04-09T08:48:50;102336.46;;;10.53;74.74
77454;BME280;66538;53.150;18.160;2023-04-09T08:51:22;102338.49;;;10.60;74.44
77454;BME280;66538;53.150;18.160;2023-04-09T08:53:57;102334.64;;;10.71;74.42
77454;BME280;66538;53.150;18.160;2023-04-09T08:56:24;102329.52;;;10.86;74.03
77454;BME280;66538;53.150;18.160;2023-04-09T08:58:53;102330.17;;;10.95;73.75
77454;BME280;66538;53.150;18.160;2023-04-09T09:01:28;102328.79;;;11.04;73.47
77454;BME280;66538;53.150;18.160;2023-04-09T09:04:06;102328.39;;;11.13;73.15
77454;BME280;66538;53.150;18.160;2023-04-09T09:06:35;102330.44;;;11.18;72.88
77454;BME280;66538;53.150;18.160;2023-04-09T09:11:31;102322.77;;;11.24;72.71
77454;BME280;66538;53.150;18.160;2023-04-09T09:14:00;102326.77;;;11.30;72.46
77454;BME280;66538;53.150;18.160;2023-04-09T09:16:28;102321.21;;;11.36;72.62
77454;BME280;66538;53.150;18.160;2023-04-09T09:18:54;102325.36;;;11.52;71.94
77454;BME280;66538;53.150;18.160;2023-04-09T09:21:22;102323.24;;;11.63;71.85
77454;BME280;66538;53.150;18.160;2023-04-09T09:23:49;102320.58;;;11.82;71.24
77454;BME280;66538;53.150;18.160;2023-04-09T09:26:20;102322.16;;;11.97;70.77
77454;BME280;66538;53.150;18.160;2023-04-09T09:28:48;102324.39;;;12.14;70.21
77454;BME280;66538;53.150;18.160;2023-04-09T09:31:16;102321.58;;;12.33;69.77
77454;BME280;66538;53.150;18.160;2023-04-09T09:33:43;102325.84;;;12.52;69.91
77454;BME280;66538;53.150;18.160;2023-04-09T09:36:10;102323.08;;;12.72;69.07
77454;BME280;66538;53.150;18.160;2023-04-09T09:38:54;102322.95;;;12.88;68.46
77454;BME280;66538;53.150;18.160;2023-04-09T09:41:23;102326.20;;;13.09;68.02
77454;BME280;66538;53.150;18.160;2023-04-09T09:43:50;102324.77;;;13.25;67.25
77454;BME280;66538;53.150;18.160;2023-04-09T09:46:17;102322.04;;;13.37;66.34
77454;BME280;66538;53.150;18.160;2023-04-09T09:48:46;102321.10;;;13.50;66.08
77454;BME280;66538;53.150;18.160;2023-04-09T09:51:13;102318.30;;;13.57;65.27
77454;BME280;66538;53.150;18.160;2023-04-09T09:53:43;102319.17;;;13.63;64.70
77454;BME280;66538;53.150;18.160;2023-04-09T09:56:15;102320.44;;;13.70;64.91
77454;BME280;66538;53.150;18.160;2023-04-09T09:58:48;102321.55;;;13.80;63.81
77454;BME280;66538;53.150;18.160;2023-04-09T10:01:20;102318.70;;;13.91;64.27
77454;BME280;66538;53.150;18.160;2023-04-09T10:03:50;102312.07;;;14.04;63.66
77454;BME280;66538;53.150;18.160;2023-04-09T10:06:18;102310.45;;;14.18;63.57
77454;BME280;66538;53.150;18.160;2023-04-09T10:08:47;102306.70;;;14.34;62.83
77454;BME280;66538;53.150;18.160;2023-04-09T10:11:14;102305.33;;;14.48;62.42
77454;BME280;66538;53.150;18.160;2023-04-09T10:13:48;102306.21;;;14.64;62.19
77454;BME280;66538;53.150;18.160;2023-04-09T10:16:16;102298.09;;;14.81;61.35
77454;BME280;66538;53.150;18.160;2023-04-09T10:18:44;102289.91;;;14.84;60.45
77454;BME280;66538;53.150;18.160;2023-04-09T10:21:23;102295.89;;;14.97;60.42
77454;BME280;66538;53.150;18.160;2023-04-09T10:23:52;102301.67;;;15.20;60.00
77454;BME280;66538;53.150;18.160;2023-04-09T10:26:19;102294.86;;;15.29;59.25
77454;BME280;66538;53.150;18.160;2023-04-09T10:28:46;102295.87;;;15.32;58.90
77454;BME280;66538;53.150;18.160;2023-04-09T10:31:13;102296.94;;;15.41;58.46
77454;BME280;66538;53.150;18.160;2023-04-09T10:33:42;102292.21;;;15.51;58.52
77454;BME280;66538;53.150;18.160;2023-04-09T10:36:10;102291.14;;;15.62;58.00
77454;BME280;66538;53.150;18.160;2023-04-09T10:38:44;102287.73;;;15.70;57.60
77454;BME280;66538;53.150;18.160;2023-04-09T10:41:26;102287.23;;;15.76;57.89
77454;BME280;66538;53.150;18.160;2023-04-09T10:43:53;102289.94;;;15.90;57.69
77454;BME280;66538;53.150;18.160;2023-04-09T10:46:28;102292.66;;;15.99;57.72
77454;BME280;66538;53.150;18.160;2023-04-09T10:49:09;102292.38;;;16.06;56.98
77454;BME280;66538;53.150;18.160;2023-04-09T10:52:01;102296.17;;;16.09;57.03
77454;BME280;66538;53.150;18.160;2023-04-09T10:59:35;102296.72;;;16.08;56.44
77454;BME280;66538;53.150;18.160;2023-04-09T11:02:17;102295.58;;;16.09;56.78
77454;BME280;66538;53.150;18.160;2023-04-09T11:07:44;102297.67;;;16.15;56.37
77454;BME280;66538;53.150;18.160;2023-04-09T11:10:12;102296.71;;;16.19;55.94
77454;BME280;66538;53.150;18.160;2023-04-09T11:12:38;102301.05;;;16.23;56.00
77454;BME280;66538;53.150;18.160;2023-04-09T11:15:14;102299.58;;;16.24;55.52
77454;BME280;66538;53.150;18.160;2023-04-09T11:17:42;102297.67;;;16.28;55.48
77454;BME280;66538;53.150;18.160;2023-04-09T11:20:09;102295.45;;;16.33;55.30
77454;BME280;66538;53.150;18.160;2023-04-09T11:22:36;102288.38;;;16.34;54.93
77454;BME280;66538;53.150;18.160;2023-04-09T11:25:04;102286.39;;;16.42;54.84
77454;BME280;66538;53.150;18.160;2023-04-09T11:27:36;102291.11;;;16.57;54.53
77454;BME280;66538;53.150;18.160;2023-04-09T11:30:03;102293.27;;;16.63;54.22
77454;BME280;66538;53.150;18.160;2023-04-09T11:32:30;102292.84;;;16.69;54.22
77454;BME280;66538;53.150;18.160;2023-04-09T11:34:57;102289.40;;;16.82;53.96
77454;BME280;66538;53.150;18.160;2023-04-09T11:37:24;102293.54;;;16.93;54.09
77454;BME280;66538;53.150;18.160;2023-04-09T11:39:52;102288.23;;;17.03;53.43
77454;BME280;66538;53.150;18.160;2023-04-09T11:42:20;102288.52;;;17.09;53.34
77454;BME280;66538;53.150;18.160;2023-04-09T11:44:47;102287.90;;;17.16;53.42
77454;BME280;66538;53.150;18.160;2023-04-09T11:47:15;102290.66;;;17.31;53.11
77454;BME280;66538;53.150;18.160;2023-04-09T11:49:44;102284.34;;;17.43;52.64
77454;BME280;66538;53.150;18.160;2023-04-09T11:52:13;102284.78;;;17.52;51.81
77454;BME280;66538;53.150;18.160;2023-04-09T11:54:41;102286.04;;;17.58;52.10
77454;BME280;66538;53.150;18.160;2023-04-09T11:57:13;102289.86;;;17.67;51.51
77454;BME280;66538;53.150;18.160;2023-04-09T11:59:40;102283.89;;;17.84;51.58
77454;BME280;66538;53.150;18.160;2023-04-09T12:02:06;102287.89;;;18.05;51.40
77454;BME280;66538;53.150;18.160;2023-04-09T12:04:33;102285.57;;;18.28;51.12
77454;BME280;66538;53.150;18.160;2023-04-09T12:07:00;102281.58;;;18.54;50.82
77454;BME280;66538;53.150;18.160;2023-04-09T12:09:27;102280.18;;;18.77;50.05
77454;BME280;66538;53.150;18.160;2023-04-09T12:11:54;102280.27;;;18.81;49.34
77454;BME280;66538;53.150;18.160;2023-04-09T12:14:21;102280.61;;;18.72;49.60
77454;BME280;66538;53.150;18.160;2023-04-09T12:16:51;102278.18;;;18.72;49.40
77454;BME280;66538;53.150;18.160;2023-04-09T12:19:19;102275.28;;;18.77;49.72
77454;BME280;66538;53.150;18.160;2023-04-09T12:21:52;102271.95;;;19.03;49.56
77454;BME280;66538;53.150;18.160;2023-04-09T12:24:24;102267.52;;;19.82;48.09
77454;BME280;66538;53.150;18.160;2023-04-09T12:26:51;102269.35;;;20.42;46.72
77454;BME280;66538;53.150;18.160;2023-04-09T12:29:19;102262.81;;;20.96;46.40
77454;BME280;66538;53.150;18.160;2023-04-09T12:31:46;102260.71;;;21.48;45.04
77454;BME280;66538;53.150;18.160;2023-04-09T12:34:13;102258.80;;;21.74;44.15
77454;BME280;66538;53.150;18.160;2023-04-09T12:36:39;102261.71;;;22.03;43.82
77454;BME280;66538;53.150;18.160;2023-04-09T12:39:09;102261.95;;;22.35;42.98
77454;BME280;66538;53.150;18.160;2023-04-09T12:41:36;102255.15;;;22.56;42.92
77454;BME280;66538;53.150;18.160;2023-04-09T12:44:03;102255.96;;;22.83;42.44
77454;BME280;66538;53.150;18.160;2023-04-09T12:46:30;102248.70;;;23.14;41.73
77454;BME280;66538;53.150;18.160;2023-04-09T12:48:57;102246.92;;;23.19;41.07
77454;BME280;66538;53.150;18.160;2023-04-09T12:51:24;102244.81;;;23.12;41.04
77454;BME280;66538;53.150;18.160;2023-04-09T12:53:51;102238.53;;;23.35;40.31
77454;BME280;66538;53.150;18.160;2023-04-09T12:56:17;102238.84;;;23.42;39.03
77454;BME280;66538;53.150;18.160;2023-04-09T12:58:44;102234.82;;;23.54;39.24
77454;BME280;66538;53.150;18.160;2023-04-09T13:01:11;102229.98;;;23.66;38.86
77454;BME280;66538;53.150;18.160;2023-04-09T13:03:37;102232.06;;;23.86;38.41
77454;BME280;66538;53.150;18.160;2023-04-09T13:06:06;102226.94;;;24.25;38.09
77454;BME280;66538;53.150;18.160;2023-04-09T13:08:33;102228.38;;;24.71;37.30
77454;BME280;66538;53.150;18.160;2023-04-09T13:10:59;102223.08;;;25.10;37.08
77454;BME280;66538;53.150;18.160;2023-04-09T13:13:26;102224.25;;;25.45;36.10
77454;BME280;66538;53.150;18.160;2023-04-09T13:15:54;102221.23;;;25.82;35.65
77454;BME280;66538;53.150;18.160;2023-04-09T13:18:20;102219.26;;;26.15;35.10
77454;BME280;66538;53.150;18.160;2023-04-09T13:20:47;102220.88;;;26.46;34.44
77454;BME280;66538;53.150;18.160;2023-04-09T13:23:14;102223.05;;;26.77;34.04
77454;BME280;66538;53.150;18.160;2023-04-09T13:25:40;102218.58;;;27.15;33.18
77454;BME280;66538;53.150;18.160;2023-04-09T13:28:07;102213.35;;;27.24;33.03
77454;BME280;66538;53.150;18.160;2023-04-09T13:30:34;102213.41;;;27.48;32.48
77454;BME280;66538;53.150;18.160;2023-04-09T13:33:01;102206.42;;;27.68;31.87
77454;BME280;66538;53.150;18.160;2023-04-09T13:35:27;102205.60;;;27.88;31.77
77454;BME280;66538;53.150;18.160;2023-04-09T13:37:54;102208.28;;;28.29;31.27
77454;BME280;66538;53.150;18.160;2023-04-09T13:40:20;102207.15;;;28.64;30.45
77454;BME280;66538;53.150;18.160;2023-04-09T13:42:47;102212.47;;;28.85;29.82
77454;BME280;66538;53.150;18.160;2023-04-09T13:45:14;102204.64;;;28.91;29.68
77454;BME280;66538;53.150;18.160;2023-04-09T13:47:40;102208.13;;;29.08;29.82
77454;BME280;66538;53.150;18.160;2023-04-09T13:50:08;102203.75;;;29.04;29.51
77454;BME280;66538;53.150;18.160;2023-04-09T13:52:35;102201.94;;;28.80;29.68
77454;BME280;66538;53.150;18.160;2023-04-09T13:55:02;102195.90;;;28.68;29.72
77454;BME280;66538;53.150;18.160;2023-04-09T13:57:30;102202.45;;;28.84;28.98
77454;BME280;66538;53.150;18.160;2023-04-09T13:59:56;102202.17;;;29.10;29.05
77454;BME280;66538;53.150;18.160;2023-04-09T14:02:27;102200.86;;;29.35;28.74
77454;BME280;66538;53.150;18.160;2023-04-09T14:04:54;102198.56;;;29.66;28.44
77454;BME280;66538;53.150;18.160;2023-04-09T14:07:22;102194.88;;;29.94;27.90
77454;BME280;66538;53.150;18.160;2023-04-09T14:09:49;102193.11;;;30.08;27.57
77454;BME280;66538;53.150;18.160;2023-04-09T14:12:17;102198.32;;;30.27;27.26
77454;BME280;66538;53.150;18.160;2023-04-09T14:14:43;102195.08;;;30.41;26.78
77454;BME280;66538;53.150;18.160;2023-04-09T14:17:10;102192.92;;;30.59;26.63
77454;BME280;66538;53.150;18.160;2023-04-09T14:19:37;102192.10;;;30.87;26.54
77454;BME280;66538;53.150;18.160;2023-04-09T14:22:04;102196.55;;;31.18;26.68
77454;BME280;66538;53.150;18.160;2023-04-09T14:24:32;102188.98;;;31.24;26.01
77454;BME280;66538;53.150;18.160;2023-04-09T14:27:05;102189.59;;;31.02;26.59
77454;BME280;66538;53.150;18.160;2023-04-09T14:29:33;102192.21;;;31.09;26.38
77454;BME280;66538;53.150;18.160;2023-04-09T14:32:00;102190.31;;;31.15;26.09
77454;BME280;66538;53.150;18.160;2023-04-09T14:34:29;102185.50;;;31.23;25.51
77454;BME280;66538;53.150;18.160;2023-04-09T14:36:56;102180.09;;;31.20;25.29
77454;BME280;66538;53.150;18.160;2023-04-09T14:39:23;102176.38;;;31.46;25.18
77454;BME280;66538;53.150;18.160;2023-04-09T14:41:50;102169.85;;;31.91;25.13
77454;BME280;66538;53.150;18.160;2023-04-09T14:44:17;102172.65;;;32.11;25.01
77454;BME280;66538;53.150;18.160;2023-04-09T14:46:43;102170.15;;;32.05;24.18
77454;BME280;66538;53.150;18.160;2023-04-09T14:49:10;102173.98;;;31.88;24.38
77454;BME280;66538;53.150;18.160;2023-04-09T14:51:37;102177.86;;;31.80;24.49
77454;BME280;66538;53.150;18.160;2023-04-09T14:54:03;102174.12;;;31.77;24.62
77454;BME280;66538;53.150;18.160;2023-04-09T14:56:30;102169.00;;;31.87;24.43
77454;BME280;66538;53.150;18.160;2023-04-09T14:58:56;102165.92;;;31.91;24.47
77454;BME280;66538;53.150;18.160;2023-04-09T15:01:24;102164.95;;;32.13;23.91
77454;BME280;66538;53.150;18.160;2023-04-09T15:03:52;102167.30;;;32.25;23.63
77454;BME280;66538;53.150;18.160;2023-04-09T15:06:18;102164.30;;;32.28;23.71
77454;BME280;66538;53.150;18.160;2023-04-09T15:08:45;102160.40;;;32.30;23.73
77454;BME280;66538;53.150;18.160;2023-04-09T15:11:16;102162.63;;;32.29;23.81
77454;BME280;66538;53.150;18.160;2023-04-09T15:13:43;102161.89;;;32.23;23.95
77454;BME280;66538;53.150;18.160;2023-04-09T15:16:10;102163.61;;;32.20;23.96
77454;BME280;66538;53.150;18.160;2023-04-09T15:18:45;102156.45;;;32.07;23.37
77454;BME280;66538;53.150;18.160;2023-04-09T15:21:17;102163.79;;;31.88;23.33
77454;BME280;66538;53.150;18.160;2023-04-09T15:23:44;102161.13;;;31.49;23.59
77454;BME280;66538;53.150;18.160;2023-04-09T15:26:11;102169.23;;;31.31;23.86
77454;BME280;66538;53.150;18.160;2023-04-09T15:28:37;102169.98;;;31.08;24.33
77454;BME280;66538;53.150;18.160;2023-04-09T15:31:04;102169.34;;;31.00;24.77
77454;BME280;66538;53.150;18.160;2023-04-09T15:33:30;102171.79;;;30.94;24.65
77454;BME280;66538;53.150;18.160;2023-04-09T15:35:58;102167.27;;;30.80;24.91
77454;BME280;66538;53.150;18.160;2023-04-09T15:38:25;102167.96;;;30.64;25.39
77454;BME280;66538;53.150;18.160;2023-04-09T15:40:54;102167.46;;;30.48;24.97
77454;BME280;66538;53.150;18.160;2023-04-09T15:43:22;102162.46;;;30.05;25.52
77454;BME280;66538;53.150;18.160;2023-04-09T15:45:51;102161.80;;;29.97;25.48
77454;BME280;66538;53.150;18.160;2023-04-09T15:48:18;102159.98;;;29.74;25.75
77454;BME280;66538;53.150;18.160;2023-04-09T15:50:45;102164.86;;;29.56;26.01
77454;BME280;66538;53.150;18.160;2023-04-09T15:53:13;102165.20;;;29.47;26.26
77454;BME280;66538;53.150;18.160;2023-04-09T15:55:40;102165.09;;;29.02;26.88
77454;BME280;66538;53.150;18.160;2023-04-09T15:58:07;102167.80;;;28.76;27.25
77454;BME280;66538;53.150;18.160;2023-04-09T16:00:34;102167.95;;;28.49;27.50
77454;BME280;66538;53.150;18.160;2023-04-09T16:03:01;102166.54;;;28.06;27.86
77454;BME280;66538;53.150;18.160;2023-04-09T16:05:27;102165.44;;;27.54;28.08
77454;BME280;66538;53.150;18.160;2023-04-09T16:07:54;102174.14;;;26.85;29.01
77454;BME280;66538;53.150;18.160;2023-04-09T16:10:21;102173.41;;;25.91;30.08
77454;BME280;66538;53.150;18.160;2023-04-09T16:12:47;102171.07;;;25.18;31.16
77454;BME280;66538;53.150;18.160;2023-04-09T16:15:15;102175.94;;;24.42;31.86
77454;BME280;66538;53.150;18.160;2023-04-09T16:17:41;102173.80;;;23.69;32.70
77454;BME280;66538;53.150;18.160;2023-04-09T16:20:08;102176.89;;;23.03;33.57
77454;BME280;66538;53.150;18.160;2023-04-09T16:22:35;102176.75;;;22.42;34.35
77454;BME280;66538;53.150;18.160;2023-04-09T16:25:02;102175.38;;;21.89;35.31
77454;BME280;66538;53.150;18.160;2023-04-09T16:27:29;102171.55;;;21.29;35.98
77454;BME280;66538;53.150;18.160;2023-04-09T16:29:55;102175.87;;;20.71;36.97
77454;BME280;66538;53.150;18.160;2023-04-09T16:32:22;102175.01;;;20.11;38.09
77454;BME280;66538;53.150;18.160;2023-04-09T16:34:48;102172.91;;;19.64;38.91
77454;BME280;66538;53.150;18.160;2023-04-09T16:37:15;102174.48;;;19.31;39.91
77454;BME280;66538;53.150;18.160;2023-04-09T16:39:42;102175.93;;;18.92;40.92
77454;BME280;66538;53.150;18.160;2023-04-09T16:42:08;102175.13;;;18.38;42.12
77454;BME280;66538;53.150;18.160;2023-04-09T16:44:37;102180.50;;;17.92;43.00
77454;BME280;66538;53.150;18.160;2023-04-09T16:47:04;102180.98;;;17.48;44.33
77454;BME280;66538;53.150;18.160;2023-04-09T16:49:31;102178.52;;;17.05;45.38
77454;BME280;66538;53.150;18.160;2023-04-09T16:51:57;102178.92;;;16.65;46.33
77454;BME280;66538;53.150;18.160;2023-04-09T16:54:24;102187.51;;;16.29;47.49
77454;BME280;66538;53.150;18.160;2023-04-09T16:56:51;102190.24;;;15.94;48.46
77454;BME280;66538;53.150;18.160;2023-04-09T16:59:18;102192.23;;;15.59;49.56
77454;BME280;66538;53.150;18.160;2023-04-09T17:01:46;102193.52;;;15.30;50.65
77454;BME280;66538;53.150;18.160;2023-04-09T17:04:14;102197.46;;;15.01;51.66
77454;BME280;66538;53.150;18.160;2023-04-09T17:06:41;102194.92;;;14.71;52.31
77454;BME280;66538;53.150;18.160;2023-04-09T17:09:08;102198.47;;;14.47;52.94
77454;BME280;66538;53.150;18.160;2023-04-09T17:11:35;102206.60;;;14.26;53.71
77454;BME280;66538;53.150;18.160;2023-04-09T17:14:03;102212.73;;;14.05;54.49
77454;BME280;66538;53.150;18.160;2023-04-09T17:16:30;102210.86;;;13.82;55.18
77454;BME280;66538;53.150;18.160;2023-04-09T17:18:56;102211.07;;;13.60;55.81
77454;BME280;66538;53.150;18.160;2023-04-09T17:21:25;102220.08;;;13.41;56.42
77454;BME280;66538;53.150;18.160;2023-04-09T17:23:52;102221.75;;;13.22;56.92
77454;BME280;66538;53.150;18.160;2023-04-09T17:26:19;102219.19;;;13.02;57.58
77454;BME280;66538;53.150;18.160;2023-04-09T17:28:46;102224.67;;;12.85;58.08
77454;BME280;66538;53.150;18.160;2023-04-09T17:31:13;102229.63;;;12.68;58.61
77454;BME280;66538;53.150;18.160;2023-04-09T17:33:43;102232.62;;;12.49;59.38
77454;BME280;66538;53.150;18.160;2023-04-09T17:36:09;102233.16;;;12.31;59.84
77454;BME280;66538;53.150;18.160;2023-04-09T17:38:36;102237.92;;;12.16;60.22
77454;BME280;66538;53.150;18.160;2023-04-09T17:41:03;102237.71;;;12.01;60.91
77454;BME280;66538;53.150;18.160;2023-04-09T17:43:30;102242.44;;;11.87;61.41
77454;BME280;66538;53.150;18.160;2023-04-09T17:45:56;102243.70;;;11.72;61.65
77454;BME280;66538;53.150;18.160;2023-04-09T17:48:23;102242.97;;;11.58;62.34
77454;BME280;66538;53.150;18.160;2023-04-09T17:50:50;102248.25;;;11.44;62.83
77454;BME280;66538;53.150;18.160;2023-04-09T17:53:16;102252.09;;;11.29;63.33
77454;BME280;66538;53.150;18.160;2023-04-09T17:55:48;102252.33;;;11.18;63.63
77454;BME280;66538;53.150;18.160;2023-04-09T17:58:16;102253.42;;;11.05;64.12
77454;BME280;66538;53.150;18.160;2023-04-09T18:00:43;102254.63;;;10.95;64.55
77454;BME280;66538;53.150;18.160;2023-04-09T18:03:10;102255.02;;;10.87;64.90
77454;BME280;66538;53.150;18.160;2023-04-09T18:05:37;102260.14;;;10.79;65.23
77454;BME280;66538;53.150;18.160;2023-04-09T18:08:04;102262.21;;;10.71;65.88
77454;BME280;66538;53.150;18.160;2023-04-09T18:10:31;102265.33;;;10.64;66.28
77454;BME280;66538;53.150;18.160;2023-04-09T18:12:57;102268.79;;;10.55;66.25
77454;BME280;66538;53.150;18.160;2023-04-09T18:18:22;102271.33;;;10.39;66.95
77454;BME280;66538;53.150;18.160;2023-04-09T18:20:49;102277.73;;;10.33;67.55
77454;BME280;66538;53.150;18.160;2023-04-09T18:23:17;102284.70;;;10.26;67.93
77454;BME280;66538;53.150;18.160;2023-04-09T18:25:44;102285.83;;;10.20;68.08
77454;BME280;66538;53.150;18.160;2023-04-09T18:28:10;102285.60;;;10.13;68.32
77454;BME280;66538;53.150;18.160;2023-04-09T18:30:37;102287.66;;;10.05;68.32
77454;BME280;66538;53.150;18.160;2023-04-09T18:33:04;102288.25;;;9.99;68.59
77454;BME280;66538;53.150;18.160;2023-04-09T18:35:31;102290.77;;;9.94;69.02
77454;BME280;66538;53.150;18.160;2023-04-09T18:37:57;102295.08;;;9.87;69.32
77454;BME280;66538;53.150;18.160;2023-04-09T18:40:24;102294.61;;;9.81;69.79
77454;BME280;66538;53.150;18.160;2023-04-09T18:42:51;102292.28;;;9.74;69.88
77454;BME280;66538;53.150;18.160;2023-04-09T18:45:17;102295.17;;;9.69;70.39
77454;BME280;66538;53.150;18.160;2023-04-09T18:47:45;102299.47;;;9.66;70.67
77454;BME280;66538;53.150;18.160;2023-04-09T18:50:12;102300.55;;;9.63;70.57
77454;BME280;66538;53.150;18.160;2023-04-09T18:52:43;102301.04;;;9.59;70.93
77454;BME280;66538;53.150;18.160;2023-04-09T18:55:10;102306.48;;;9.57;71.16
77454;BME280;66538;53.150;18.160;2023-04-09T18:57:37;102306.02;;;9.54;71.35
77454;BME280;66538;53.150;18.160;2023-04-09T19:00:04;102306.55;;;9.49;71.68
77454;BME280;66538;53.150;18.160;2023-04-09T19:02:32;102302.81;;;9.45;71.70
77454;BME280;66538;53.150;18.160;2023-04-09T19:04:58;102304.42;;;9.41;71.82
77454;BME280;66538;53.150;18.160;2023-04-09T19:07:25;102306.38;;;9.39;72.01
77454;BME280;66538;53.150;18.160;2023-04-09T19:09:52;102309.35;;;9.36;72.07
77454;BME280;66538;53.150;18.160;2023-04-09T19:12:19;102310.53;;;9.34;72.84
77454;BME280;66538;53.150;18.160;2023-04-09T19:14:45;102312.02;;;9.35;73.04
77454;BME280;66538;53.150;18.160;2023-04-09T19:17:12;102311.85;;;9.36;73.63
77454;BME280;66538;53.150;18.160;2023-04-09T19:19:38;102314.77;;;9.37;74.12
77454;BME280;66538;53.150;18.160;2023-04-09T19:22:05;102321.17;;;9.39;73.75
77454;BME280;66538;53.150;18.160;2023-04-09T19:24:32;102323.80;;;9.39;73.56
77454;BME280;66538;53.150;18.160;2023-04-09T19:26:59;102325.44;;;9.37;73.21
77454;BME280;66538;53.150;18.160;2023-04-09T19:29:29;102325.45;;;9.36;73.23
77454;BME280;66538;53.150;18.160;2023-04-09T19:31:56;102332.54;;;9.36;73.37